Station: Hindmarsh Island  

  Atmospheric Gas Attenuation - ITU Rec 676-11   ----------------- dB/100km -----------------
Date Time Temp RH % AH g/m3 Dew Point Wind Direction Speed kph Gust kph Barometer mB Rainfall Since 9am 24GHz 47GHz 76GHz 122GHz 134GHz 241GHz
05/09 09:00 14.1 78 9.47 10.3 32 48 1010.3 0.2 21.4 27.1 43.0 113.2 109.4 377.0
05/09 08:50 14 78 9.41 10.2 28 39 1009.9 5.2 21.3 27.0 42.8 112.6 108.7 374.5
05/09 08:40 12.9 81 9.13 9.7 26 41 1009.6 5.2 20.8 26.9 42.3 111.1 106.4 366.4
05/09 08:30 12.5 82 9.02 9.5 32 46 1009.7 5.2 20.6 26.8 42.0 110.4 105.4 363.0
05/09 08:20 12.7 83 9.24 9.9 37 61 1009.8 5.2 21.0 27.1 42.8 112.6 108.2 372.6
05/09 08:10 13.9 81 9.71 10.7 28 39 1009.6 4.8 22.0 27.6 44.1 116.0 112.9 389.2
05/09 08:00 14.5 78 9.7 10.7 26 39 1009.3 4.4 21.9 27.3 43.7 115.0 111.8 385.6
05/09 07:50 14.1 78 9.47 10.3 28 39 1009.1 4.4 21.4 27.1 43.0 113.0 109.3 376.6
05/09 07:40 13.7 79 9.36 10.1 28 41 1009.1 4.4 21.2 27.0 42.8 112.4 108.4 373.3
05/09 07:30 14.2 74 9.04 9.6 28 43 1009.1 4.4 20.5 26.3 41.2 108.2 103.4 356.0
05/09 07:20 13.8 76 9.06 9.6 26 39 1008.9 4.4 20.6 26.5 41.5 109.0 104.2 358.7
05/09 07:10 13.7 75 8.88 9.4 30 39 1008.8 4.4 20.2 26.2 40.8 107.1 101.9 350.7
05/09 07:00 13.6 75 8.83 9.3 30 44 1008.8 4.4 20.1 26.2 40.6 106.7 101.3 348.8
05/09 06:50 13.7 76 9 9.6 26 37 1008.8 4.4 20.5 26.4 41.3 108.4 103.5 356.3
05/09 06:40 13.7 74 8.76 9.2 33 50 1008.6 4.4 19.9 26.0 40.3 105.8 100.3 345.0
05/09 06:30 14.1 71 8.62 8.9 33 50 1008.3 4.4 19.6 25.7 39.5 103.7 97.9 336.8
05/09 06:20 14.2 70 8.55 8.8 33 46 1008.3 4.4 19.5 25.5 39.2 102.9 96.8 333.1
05/09 06:10 14.1 73 8.86 9.3 33 54 1008.2 4.4 20.1 26.0 40.5 106.3 101.0 347.8
05/09 06:00 14.3 71 8.72 9.1 35 50 1008.3 4.4 19.8 25.8 39.8 104.5 98.9 340.5
05/09 05:50 14.3 70 8.6 8.9 30 46 1008.2 4.4 19.6 25.6 39.3 103.3 97.4 335.0
05/09 05:40 14.3 70 8.6 8.9 32 44 1007.8 4.4 19.6 25.5 39.3 103.2 97.3 334.9
05/09 05:30 14.4 71 8.78 9.2 26 44 1007.9 4.4 20.0 25.8 40.0 105.0 99.6 342.7
05/09 05:20 14.7 68 8.56 8.9 32 46 1007.8 4.4 19.5 25.4 39.0 102.3 96.3 331.3
05/09 05:10 14.8 68 8.61 9 35 54 1007.7 4.4 19.6 25.4 39.1 102.7 96.8 333.2
05/09 05:00 14.8 76 9.63 10.6 35 59 1007.5 4.4 21.8 27.1 43.2 113.6 110.3 380.3
05/09 04:50 15 75 9.62 10.6 39 67 1007.3 4.4 21.7 27.0 43.0 113.2 109.9 378.8
05/09 04:40 15.5 72 9.52 10.5 39 56 1007 4.4 21.5 26.6 42.3 111.3 107.8 371.6
05/09 04:30 15.8 71 9.56 10.6 41 59 1007 4.4 21.5 26.6 42.3 111.3 107.9 372.1
05/09 04:20 15.8 72 9.69 10.8 41 63 1006.9 4.4 21.8 26.8 42.9 112.7 109.6 378.1
05/09 04:10 15.8 73 9.83 11 37 59 1006.7 4.4 22.1 27.1 43.4 114.2 111.5 384.6
05/09 04:00 15.9 74 10.02 11.3 39 54 1006.6 4.4 22.5 27.3 44.1 116.1 113.9 392.9
05/09 03:50 15.5 78 10.31 11.7 33 44 1006.6 4.4 23.2 27.9 45.6 119.9 118.4 408.7
05/09 03:40 15.8 74 9.96 11.2 35 50 1006.5 4.4 22.4 27.3 43.9 115.6 113.2 390.6
05/09 03:30 15.4 79 10.38 11.8 28 39 1006.7 4.4 23.3 28.1 45.9 120.9 119.5 412.6
05/09 03:20 15.5 78 10.31 11.7 26 35 1006.6 4.4 23.2 27.9 45.6 119.9 118.4 408.7
05/09 03:10 15.5 77 10.18 11.5 26 35 1006.6 4.4 22.9 27.7 45.0 118.5 116.6 402.5
05/09 03:00 15.7 77 10.3 11.7 28 37 1006.6 4.4 23.1 27.9 45.4 119.5 117.9 407.2
05/09 02:50 15.7 78 10.44 11.9 26 35 1006.8 4.4 23.4 28.1 46.0 121.1 119.9 413.9
05/09 02:40 15.6 79 10.51 12 24 35 1006.8 4.4 23.6 28.2 46.3 122.0 121.0 417.8
05/09 02:30 15.7 79 10.57 12.1 26 35 1006.9 4.4 23.7 28.3 46.5 122.5 121.7 420.2
05/09 02:20 15.7 80 10.7 12.3 26 37 1007 4.4 24.0 28.5 47.1 124.0 123.5 426.5
05/09 02:10 15.8 80 10.77 12.4 28 39 1007.2 4.4 24.1 28.6 47.3 124.7 124.3 429.4
05/09 02:00 15.9 80 10.83 12.5 28 41 1007 4.4 24.3 28.7 47.5 125.1 124.9 431.6
05/09 01:50 15.9 80 10.83 12.5 28 39 1007 4.4 24.3 28.7 47.5 125.1 124.9 431.6
05/09 01:40 15.9 79 10.7 12.3 30 43 1006.7 4.4 24.0 28.5 47.0 123.7 123.1 425.3
05/09 01:30 16 79 10.76 12.4 28 39 1006.9 4.4 24.1 28.5 47.2 124.2 123.8 427.7
05/09 01:20 16 79 10.76 12.4 28 37 1007.2 4.4 24.1 28.6 47.2 124.2 123.8 427.8
05/09 01:10 15.8 80 10.77 12.4 24 33 1007 4.4 24.1 28.6 47.3 124.6 124.3 429.3
05/09 01:00 15.8 80 10.77 12.4 28 37 1006.9 4.4 24.1 28.6 47.3 124.6 124.3 429.3
05/09 00:50 15.9 80 10.83 12.5 26 39 1006.7 4.4 24.3 28.7 47.5 125.1 124.9 431.5
05/09 00:40 16 80 10.9 12.6 28 39 1006.9 4.4 24.4 28.8 47.7 125.8 125.7 434.4
05/09 00:30 15.8 82 11.04 12.7 26 39 1007.1 4.4 24.7 29.1 48.5 127.7 128.0 442.4
05/09 00:20 15.7 83 11.1 12.8 26 35 1007.1 4.4 24.9 29.2 48.8 128.5 129.0 445.9
05/09 00:10 15.5 85 11.24 13 24 32 1007.1 4.4 25.2 29.5 49.5 130.5 131.3 453.9
05/09 00:00 15.4 86 11.3 13.1 24 37 1007.1 4.4 25.3 29.7 49.8 131.3 132.4 457.5
04/09 23:50 15.5 85 11.24 13 28 39 1007.3 4.4 25.2 29.5 49.5 130.5 131.4 454.0
04/09 23:40 15.8 83 11.17 12.9 30 44 1007.2 4.2 25.0 29.3 49.0 129.2 129.9 448.8
04/09 23:30 15.8 83 11.17 12.9 28 43 1007.8 4.2 25.0 29.3 49.1 129.2 129.9 449.0
04/09 23:20 16 83 11.31 13.1 32 50 1007.7 4.2 25.3 29.5 49.5 130.5 131.5 454.6
04/09 23:10 16.3 80 11.1 12.8 37 54 1007.3 3.8 24.8 29.0 48.4 127.6 128.0 442.5
04/09 23:00 16.5 79 11.09 12.8 32 46 1007 3.6 24.8 28.9 48.2 127.1 127.5 440.8
04/09 22:50 16.7 78 11.08 12.8 22 33 1007.4 3 24.7 28.9 48.1 126.7 127.1 439.3
04/09 22:40 16.7 78 11.08 12.8 22 33 1007.2 2.8 24.7 28.9 48.1 126.7 127.1 439.3
04/09 22:30 16.8 78 11.15 12.9 26 37 1007 2.8 24.9 28.9 48.3 127.3 127.9 442.0
04/09 22:20 16.7 79 11.23 13 32 44 1006.9 2.6 25.1 29.1 48.7 128.3 129.1 446.4
04/09 22:10 16.8 78 11.15 12.9 32 46 1007.4 2.4 24.9 29.0 48.3 127.3 127.9 442.1
04/09 22:00 17.1 76 11.06 12.8 32 46 1007.3 2 24.7 28.7 47.8 125.8 126.2 436.1
04/09 21:50 17.5 74 11.03 12.8 30 41 1008.2 1.2 24.6 28.6 47.4 124.9 125.2 432.7
04/09 21:40 17.7 74 11.16 13 30 44 1007.5 1 24.9 28.7 47.8 126.0 126.6 437.5
04/09 21:30 17.3 75 11.05 12.8 20 37 1006.5 1 24.7 28.6 47.6 125.3 125.6 434.2
04/09 21:20 17.3 76 11.2 13 17 24 1008.5 0.8 25.0 28.9 48.3 127.2 127.9 442.1
04/09 21:10 17.3 75 11.05 12.8 17 26 1007.9 0.8 24.6 28.6 47.6 125.5 125.8 434.7
04/09 21:00 17.1 77 11.21 13 13 20 1007.8 0.6 25.0 29.0 48.4 127.5 128.3 443.4
04/09 20:50 16.7 82 11.65 13.6 19 22 1007.6 0.6 26.0 29.9 50.5 133.2 135.1 467.1
04/09 20:40 15.3 90 11.75 13.7 13 17 1007.9 0.2 26.3 30.5 51.9 136.8 139.0 480.8
04/09 20:30 15.1 89 11.48 13.3 13 19 1007.8 0.2 25.7 30.1 50.8 134.0 135.5 468.5
04/09 20:20 15.4 88 11.56 13.4 15 22 1007.9 0.2 25.9 30.2 51.0 134.4 136.1 470.7
04/09 20:10 15.6 87 11.57 13.4 17 26 1008 0.2 25.9 30.1 50.9 134.2 135.9 470.0
04/09 20:00 15.7 87 11.64 13.5 19 28 1007.9 0.2 26.0 30.2 51.2 134.8 136.7 472.8
04/09 19:50 15.7 87 11.64 13.5 20 26 1008 0.2 26.0 30.2 51.2 134.8 136.8 472.8
04/09 19:40 15.7 86 11.51 13.4 20 28 1008 0.2 25.7 30.0 50.6 133.3 134.9 466.4
04/09 19:30 15.8 86 11.58 13.5 22 30 1008.2 0.2 25.9 30.1 50.8 134.0 135.7 469.3
04/09 19:20 15.8 85 11.44 13.3 24 32 1008.2 0.2 25.6 29.8 50.2 132.4 133.8 462.4
04/09 19:10 15.9 85 11.51 13.4 24 33 1008.1 0.2 25.7 29.9 50.5 133.0 134.6 465.2
04/09 19:00 15.8 86 11.58 13.5 24 35 1008.2 0.2 25.9 30.1 50.8 134.0 135.7 469.3
04/09 18:50 15.9 86 11.65 13.6 26 35 1008.2 0.2 26.0 30.2 51.1 134.6 136.6 472.2
04/09 18:40 15.9 85 11.51 13.4 28 37 1008.2 0.2 25.7 29.9 50.5 133.0 134.6 465.3
04/09 18:30 15.9 85 11.51 13.4 28 37 1008.3 0.2 25.7 29.9 50.5 133.0 134.6 465.3
04/09 18:20 15.9 85 11.51 13.4 28 39 1008.2 0.2 25.7 29.9 50.5 133.0 134.6 465.3
04/09 18:10 15.9 85 11.51 13.4 24 33 1008.3 0.2 25.7 29.9 50.5 133.0 134.6 465.3
04/09 18:00 15.9 85 11.51 13.4 20 28 1008.5 0.2 25.7 29.9 50.5 133.1 134.6 465.4
04/09 17:50 16 84 11.44 13.3 22 30 1008.3 0.2 25.6 29.8 50.1 132.1 133.4 461.2
04/09 17:40 16.4 82 11.44 13.3 22 30 1008.4 0.2 25.5 29.6 49.9 131.4 132.7 458.9
04/09 17:30 16.5 82 11.51 13.4 20 28 1008.7 0.2 25.7 29.7 50.1 132.0 133.6 461.8
04/09 17:20 16.5 81 11.37 13.2 22 30 1008.7 0.2 25.4 29.5 49.5 130.5 131.6 455.0
04/09 17:10 16.7 82 11.65 13.6 20 28 1008.8 0.2 26.0 29.9 50.6 133.3 135.2 467.5
04/09 17:00 16.8 81 11.58 13.5 19 26 1008.9 0.2 25.8 29.8 50.2 132.4 134.0 463.5
04/09 16:50 16.9 80 11.51 13.4 19 26 1009 0.2 25.7 29.6 49.9 131.4 132.9 459.6
04/09 16:40 16.9 81 11.65 13.6 20 30 1009 0.2 26.0 29.8 50.5 133.0 134.9 466.4
04/09 16:30 17.2 80 11.71 13.7 22 30 1008.9 0.2 26.1 29.8 50.5 133.2 135.2 467.5

Last Refresh: 05-Sep-2026 09:11:51

Bureau of Meteorology